sensor_id;sensor_type;location;lat;lon;timestamp;pressure;altitude;pressure_sealevel;temperature;humidity
72721;BME280;60835;50.974;10.322;2022-11-20T00:01:30;97527.09;;;-7.32;100.00
72721;BME280;60835;50.974;10.322;2022-11-20T00:03:57;97513.97;;;-7.26;100.00
72721;BME280;60835;50.974;10.322;2022-11-20T00:06:25;97518.06;;;-7.41;100.00
72721;BME280;60835;50.974;10.322;2022-11-20T00:08:55;97519.72;;;-7.40;100.00
72721;BME280;60835;50.974;10.322;2022-11-20T00:11:24;97520.56;;;-7.39;100.00
72721;BME280;60835;50.974;10.322;2022-11-20T00:13:53;97509.34;;;-7.18;100.00
72721;BME280;60835;50.974;10.322;2022-11-20T00:16:22;97517.78;;;-7.35;100.00
72721;BME280;60835;50.974;10.322;2022-11-20T00:18:50;97497.03;;;-7.12;100.00
72721;BME280;60835;50.974;10.322;2022-11-20T00:21:22;97510.22;;;-7.19;100.00
72721;BME280;60835;50.974;10.322;2022-11-20T00:23:50;97517.53;;;-7.29;100.00
72721;BME280;60835;50.974;10.322;2022-11-20T00:26:21;97508.22;;;-7.31;100.00
72721;BME280;60835;50.974;10.322;2022-11-20T00:28:53;97516.13;;;-7.17;100.00
72721;BME280;60835;50.974;10.322;2022-11-20T00:31:20;97516.09;;;-6.97;100.00
72721;BME280;60835;50.974;10.322;2022-11-20T00:33:50;97519.19;;;-7.09;100.00
72721;BME280;60835;50.974;10.322;2022-11-20T00:36:19;97508.63;;;-7.03;100.00
72721;BME280;60835;50.974;10.322;2022-11-20T00:38:50;97497.44;;;-6.65;100.00
72721;BME280;60835;50.974;10.322;2022-11-20T00:41:17;97483.50;;;-6.61;100.00
72721;BME280;60835;50.974;10.322;2022-11-20T00:43:44;97489.84;;;-6.68;100.00
72721;BME280;60835;50.974;10.322;2022-11-20T00:46:16;97485.59;;;-7.05;100.00
72721;BME280;60835;50.974;10.322;2022-11-20T00:48:44;97465.78;;;-7.21;100.00
72721;BME280;60835;50.974;10.322;2022-11-20T00:51:12;97503.16;;;-7.14;100.00
72721;BME280;60835;50.974;10.322;2022-11-20T00:53:39;97508.03;;;-7.08;100.00
72721;BME280;60835;50.974;10.322;2022-11-20T00:56:08;97495.41;;;-6.77;100.00
72721;BME280;60835;50.974;10.322;2022-11-20T00:58:37;97501.00;;;-6.86;100.00
72721;BME280;60835;50.974;10.322;2022-11-20T01:01:18;97502.84;;;-6.71;100.00
72721;BME280;60835;50.974;10.322;2022-11-20T01:03:48;97494.84;;;-6.65;100.00
72721;BME280;60835;50.974;10.322;2022-11-20T01:08:44;97496.66;;;-6.67;100.00
72721;BME280;60835;50.974;10.322;2022-11-20T01:11:13;97496.94;;;-6.54;100.00
72721;BME280;60835;50.974;10.322;2022-11-20T01:13:41;97482.72;;;-6.44;100.00
72721;BME280;60835;50.974;10.322;2022-11-20T01:16:13;97493.84;;;-6.44;100.00
72721;BME280;60835;50.974;10.322;2022-11-20T01:18:47;97490.34;;;-6.43;100.00
72721;BME280;60835;50.974;10.322;2022-11-20T01:21:16;97480.22;;;-6.29;100.00
72721;BME280;60835;50.974;10.322;2022-11-20T01:23:44;97492.44;;;-6.87;100.00
72721;BME280;60835;50.974;10.322;2022-11-20T01:26:20;97486.22;;;-6.64;100.00
72721;BME280;60835;50.974;10.322;2022-11-20T01:28:46;97490.28;;;-6.77;100.00
72721;BME280;60835;50.974;10.322;2022-11-20T01:31:22;97479.16;;;-6.78;100.00
72721;BME280;60835;50.974;10.322;2022-11-20T01:33:53;97477.34;;;-6.75;100.00
72721;BME280;60835;50.974;10.322;2022-11-20T01:36:22;97483.03;;;-6.69;100.00
72721;BME280;60835;50.974;10.322;2022-11-20T01:38:52;97472.50;;;-6.29;100.00
72721;BME280;60835;50.974;10.322;2022-11-20T01:41:21;97473.50;;;-6.67;100.00
72721;BME280;60835;50.974;10.322;2022-11-20T01:44:07;97470.81;;;-6.30;100.00
72721;BME280;60835;50.974;10.322;2022-11-20T01:46:36;97472.66;;;-6.32;100.00
72721;BME280;60835;50.974;10.322;2022-11-20T01:52:00;97467.22;;;-6.26;100.00
72721;BME280;60835;50.974;10.322;2022-11-20T01:54:45;97476.88;;;-6.48;100.00
72721;BME280;60835;50.974;10.322;2022-11-20T01:57:13;97427.31;;;-6.51;100.00
72721;BME280;60835;50.974;10.322;2022-11-20T01:59:45;97449.94;;;-6.24;100.00
72721;BME280;60835;50.974;10.322;2022-11-20T02:02:14;97448.72;;;-5.99;100.00
72721;BME280;60835;50.974;10.322;2022-11-20T02:04:41;97432.03;;;-5.92;100.00
72721;BME280;60835;50.974;10.322;2022-11-20T02:07:09;97448.56;;;-5.96;100.00
72721;BME280;60835;50.974;10.322;2022-11-20T02:09:37;97448.50;;;-6.29;100.00
72721;BME280;60835;50.974;10.322;2022-11-20T02:12:03;97435.53;;;-5.93;100.00
72721;BME280;60835;50.974;10.322;2022-11-20T02:14:31;97420.00;;;-5.92;100.00
72721;BME280;60835;50.974;10.322;2022-11-20T02:16:57;97429.16;;;-5.86;100.00
72721;BME280;60835;50.974;10.322;2022-11-20T02:19:29;97425.16;;;-5.92;100.00
72721;BME280;60835;50.974;10.322;2022-11-20T02:22:05;97431.03;;;-6.23;100.00
72721;BME280;60835;50.974;10.322;2022-11-20T02:24:39;97426.31;;;-5.82;100.00
72721;BME280;60835;50.974;10.322;2022-11-20T02:27:10;97431.31;;;-6.11;100.00
72721;BME280;60835;50.974;10.322;2022-11-20T02:29:44;97429.16;;;-5.86;100.00
72721;BME280;60835;50.974;10.322;2022-11-20T02:32:20;97430.84;;;-5.85;100.00
72721;BME280;60835;50.974;10.322;2022-11-20T02:34:47;97439.91;;;-5.95;100.00
72721;BME280;60835;50.974;10.322;2022-11-20T02:37:17;97431.09;;;-6.07;100.00
72721;BME280;60835;50.974;10.322;2022-11-20T02:39:46;97435.63;;;-5.79;100.00
72721;BME280;60835;50.974;10.322;2022-11-20T02:42:13;97430.63;;;-5.82;100.00
72721;BME280;60835;50.974;10.322;2022-11-20T02:44:40;97427.81;;;-6.10;100.00
72721;BME280;60835;50.974;10.322;2022-11-20T02:47:07;97420.31;;;-5.82;100.00
72721;BME280;60835;50.974;10.322;2022-11-20T02:49:34;97428.22;;;-5.37;100.00
72721;BME280;60835;50.974;10.322;2022-11-20T02:52:00;97412.44;;;-5.31;100.00
72721;BME280;60835;50.974;10.322;2022-11-20T02:54:27;97404.66;;;-5.14;100.00
72721;BME280;60835;50.974;10.322;2022-11-20T02:56:53;97407.63;;;-5.21;100.00
72721;BME280;60835;50.974;10.322;2022-11-20T02:59:20;97409.09;;;-5.64;100.00
72721;BME280;60835;50.974;10.322;2022-11-20T03:01:47;97411.59;;;-5.47;100.00
72721;BME280;60835;50.974;10.322;2022-11-20T03:04:14;97404.59;;;-5.45;100.00
72721;BME280;60835;50.974;10.322;2022-11-20T03:06:40;97398.28;;;-5.24;100.00
72721;BME280;60835;50.974;10.322;2022-11-20T03:09:07;97399.81;;;-5.51;100.00
72721;BME280;60835;50.974;10.322;2022-11-20T03:11:33;97401.81;;;-5.73;100.00
72721;BME280;60835;50.974;10.322;2022-11-20T03:14:04;97381.84;;;-5.37;100.00
72721;BME280;60835;50.974;10.322;2022-11-20T03:16:32;97389.41;;;-5.34;100.00
72721;BME280;60835;50.974;10.322;2022-11-20T03:18:59;97389.31;;;-5.48;100.00
72721;BME280;60835;50.974;10.322;2022-11-20T03:21:26;97389.31;;;-5.48;100.00
72721;BME280;60835;50.974;10.322;2022-11-20T03:23:53;97387.34;;;-5.27;100.00
72721;BME280;60835;50.974;10.322;2022-11-20T03:26:22;97368.81;;;-4.73;100.00
72721;BME280;60835;50.974;10.322;2022-11-20T03:28:51;97372.50;;;-5.08;100.00
72721;BME280;60835;50.974;10.322;2022-11-20T03:31:27;97383.66;;;-5.08;100.00
72721;BME280;60835;50.974;10.322;2022-11-20T03:33:56;97364.50;;;-4.88;100.00
72721;BME280;60835;50.974;10.322;2022-11-20T03:36:23;97361.22;;;-5.06;100.00
72721;BME280;60835;50.974;10.322;2022-11-20T03:38:50;97354.41;;;-5.38;100.00
72721;BME280;60835;50.974;10.322;2022-11-20T03:41:19;97371.19;;;-5.31;100.00
72721;BME280;60835;50.974;10.322;2022-11-20T03:43:54;97377.34;;;-5.18;100.00
72721;BME280;60835;50.974;10.322;2022-11-20T03:46:22;97379.34;;;-5.23;100.00
72721;BME280;60835;50.974;10.322;2022-11-20T03:48:52;97369.22;;;-5.41;100.00
72721;BME280;60835;50.974;10.322;2022-11-20T03:51:26;97379.34;;;-5.23;100.00
72721;BME280;60835;50.974;10.322;2022-11-20T03:53:55;97351.06;;;-5.09;100.00
72721;BME280;60835;50.974;10.322;2022-11-20T03:56:24;97367.13;;;-4.58;100.00
72721;BME280;60835;50.974;10.322;2022-11-20T03:58:52;97270.91;;;-5.20;100.00
72721;BME280;60835;50.974;10.322;2022-11-20T04:01:22;97351.91;;;-4.49;100.00
72721;BME280;60835;50.974;10.322;2022-11-20T04:03:51;97360.38;;;-4.76;100.00
72721;BME280;60835;50.974;10.322;2022-11-20T04:06:20;97363.72;;;-4.45;100.00
72721;BME280;60835;50.974;10.322;2022-11-20T04:08:48;97358.81;;;-4.49;100.00
72721;BME280;60835;50.974;10.322;2022-11-20T04:11:28;97358.97;;;-4.22;100.00
72721;BME280;60835;50.974;10.322;2022-11-20T04:14:01;97346.75;;;-4.49;100.00
72721;BME280;60835;50.974;10.322;2022-11-20T04:16:36;97356.63;;;-4.41;100.00
72721;BME280;60835;50.974;10.322;2022-11-20T04:19:05;97342.25;;;-4.45;100.00
72721;BME280;60835;50.974;10.322;2022-11-20T04:21:31;97350.50;;;-4.24;100.00
72721;BME280;60835;50.974;10.322;2022-11-20T04:23:58;97348.38;;;-4.32;100.00
72721;BME280;60835;50.974;10.322;2022-11-20T04:26:26;97345.63;;;-4.29;100.00
72721;BME280;60835;50.974;10.322;2022-11-20T04:28:54;97330.69;;;-3.96;100.00
72721;BME280;60835;50.974;10.322;2022-11-20T04:31:27;97306.50;;;-4.09;100.00
72721;BME280;60835;50.974;10.322;2022-11-20T04:33:54;97311.78;;;-3.82;100.00
72721;BME280;60835;50.974;10.322;2022-11-20T04:36:23;97325.97;;;-4.03;100.00
72721;BME280;60835;50.974;10.322;2022-11-20T04:38:55;97287.16;;;-4.16;100.00
72721;BME280;60835;50.974;10.322;2022-11-20T04:41:24;97310.38;;;-3.74;100.00
72721;BME280;60835;50.974;10.322;2022-11-20T04:43:54;97280.84;;;-3.84;100.00
72721;BME280;60835;50.974;10.322;2022-11-20T04:46:26;97319.88;;;-4.02;100.00
72721;BME280;60835;50.974;10.322;2022-11-20T04:48:53;97320.34;;;-3.96;100.00
72721;BME280;60835;50.974;10.322;2022-11-20T04:51:20;97302.88;;;-3.64;100.00
72721;BME280;60835;50.974;10.322;2022-11-20T04:53:47;97321.09;;;-3.80;100.00
72721;BME280;60835;50.974;10.322;2022-11-20T04:56:14;97331.53;;;-3.95;100.00
72721;BME280;60835;50.974;10.322;2022-11-20T04:58:43;97332.81;;;-3.88;100.00
72721;BME280;60835;50.974;10.322;2022-11-20T05:03:42;97276.78;;;-3.88;100.00
72721;BME280;60835;50.974;10.322;2022-11-20T05:06:12;97317.84;;;-3.69;100.00
72721;BME280;60835;50.974;10.322;2022-11-20T05:08:39;97329.03;;;-3.68;100.00
72721;BME280;60835;50.974;10.322;2022-11-20T05:11:13;97299.47;;;-3.64;100.00
72721;BME280;60835;50.974;10.322;2022-11-20T05:13:44;97325.31;;;-3.64;100.00
72721;BME280;60835;50.974;10.322;2022-11-20T05:16:13;97308.28;;;-3.54;100.00
72721;BME280;60835;50.974;10.322;2022-11-20T05:18:41;97298.91;;;-3.55;100.00
72721;BME280;60835;50.974;10.322;2022-11-20T05:21:09;97305.75;;;-3.68;100.00
72721;BME280;60835;50.974;10.322;2022-11-20T05:23:36;97253.88;;;-3.65;100.00
72721;BME280;60835;50.974;10.322;2022-11-20T05:26:04;97296.34;;;-3.29;100.00
72721;BME280;60835;50.974;10.322;2022-11-20T05:28:31;97307.75;;;-3.59;100.00
72721;BME280;60835;50.974;10.322;2022-11-20T05:31:12;97296.03;;;-3.51;100.00
72721;BME280;60835;50.974;10.322;2022-11-20T05:33:40;97270.94;;;-3.10;100.00
72721;BME280;60835;50.974;10.322;2022-11-20T05:36:07;97282.00;;;-3.47;100.00
72721;BME280;60835;50.974;10.322;2022-11-20T05:38:34;97245.50;;;-3.42;100.00
72721;BME280;60835;50.974;10.322;2022-11-20T05:41:12;97263.75;;;-3.04;100.00
72721;BME280;60835;50.974;10.322;2022-11-20T05:43:40;97271.44;;;-3.17;100.00
72721;BME280;60835;50.974;10.322;2022-11-20T05:46:10;97267.03;;;-3.56;100.00
72721;BME280;60835;50.974;10.322;2022-11-20T05:48:37;97267.38;;;-3.34;100.00
72721;BME280;60835;50.974;10.322;2022-11-20T05:51:06;97267.09;;;-3.43;100.00
72721;BME280;60835;50.974;10.322;2022-11-20T05:53:34;97253.13;;;-3.14;100.00
72721;BME280;60835;50.974;10.322;2022-11-20T05:56:05;97246.34;;;-3.02;100.00
72721;BME280;60835;50.974;10.322;2022-11-20T05:58:33;97256.44;;;-3.12;100.00
72721;BME280;60835;50.974;10.322;2022-11-20T06:01:05;97238.22;;;-3.23;100.00
72721;BME280;60835;50.974;10.322;2022-11-20T06:03:32;97246.25;;;-3.01;100.00
72721;BME280;60835;50.974;10.322;2022-11-20T06:06:00;97219.00;;;-3.07;100.00
72721;BME280;60835;50.974;10.322;2022-11-20T06:08:27;97202.34;;;-3.15;100.00
72721;BME280;60835;50.974;10.322;2022-11-20T06:10:54;97246.75;;;-3.09;100.00
72721;BME280;60835;50.974;10.322;2022-11-20T06:13:21;97242.72;;;-3.00;100.00
72721;BME280;60835;50.974;10.322;2022-11-20T06:15:52;97242.47;;;-3.10;100.00
72721;BME280;60835;50.974;10.322;2022-11-20T06:18:19;97244.31;;;-3.24;100.00
72721;BME280;60835;50.974;10.322;2022-11-20T06:20:46;97261.84;;;-3.15;100.00
72721;BME280;60835;50.974;10.322;2022-11-20T06:23:12;97235.88;;;-3.40;100.00
72721;BME280;60835;50.974;10.322;2022-11-20T06:25:40;97249.06;;;-2.91;100.00
72721;BME280;60835;50.974;10.322;2022-11-20T06:28:07;97243.66;;;-3.01;100.00
72721;BME280;60835;50.974;10.322;2022-11-20T06:30:34;97266.72;;;-3.37;100.00
72721;BME280;60835;50.974;10.322;2022-11-20T06:33:01;97254.38;;;-3.07;100.00
72721;BME280;60835;50.974;10.322;2022-11-20T06:35:28;97247.38;;;-3.05;100.00
72721;BME280;60835;50.974;10.322;2022-11-20T06:37:55;97205.47;;;-3.10;100.00
72721;BME280;60835;50.974;10.322;2022-11-20T06:40:22;97254.78;;;-2.74;100.00
72721;BME280;60835;50.974;10.322;2022-11-20T06:42:48;97265.84;;;-2.84;100.00
72721;BME280;60835;50.974;10.322;2022-11-20T06:45:15;97260.84;;;-3.00;100.00
72721;BME280;60835;50.974;10.322;2022-11-20T06:47:41;97276.91;;;-3.22;100.00
72721;BME280;60835;50.974;10.322;2022-11-20T06:50:08;97273.63;;;-3.11;100.00
72721;BME280;60835;50.974;10.322;2022-11-20T06:52:34;97220.72;;;-3.20;100.00
72721;BME280;60835;50.974;10.322;2022-11-20T06:55:08;97261.88;;;-3.02;100.00
72721;BME280;60835;50.974;10.322;2022-11-20T06:57:35;97270.69;;;-3.32;100.00
72721;BME280;60835;50.974;10.322;2022-11-20T07:00:01;97258.31;;;-3.14;100.00
72721;BME280;60835;50.974;10.322;2022-11-20T07:02:28;97241.34;;;-3.18;100.00
72721;BME280;60835;50.974;10.322;2022-11-20T07:04:54;97267.41;;;-3.21;100.00
72721;BME280;60835;50.974;10.322;2022-11-20T07:07:21;97259.16;;;-3.01;100.00
72721;BME280;60835;50.974;10.322;2022-11-20T07:09:48;97267.09;;;-3.17;100.00
72721;BME280;60835;50.974;10.322;2022-11-20T07:12:14;97269.94;;;-3.34;100.00
72721;BME280;60835;50.974;10.322;2022-11-20T07:14:41;97258.81;;;-2.82;100.00
72721;BME280;60835;50.974;10.322;2022-11-20T07:17:07;97246.72;;;-2.69;100.00
72721;BME280;60835;50.974;10.322;2022-11-20T07:19:35;97233.38;;;-2.76;100.00
72721;BME280;60835;50.974;10.322;2022-11-20T07:22:02;97249.84;;;-3.03;100.00
72721;BME280;60835;50.974;10.322;2022-11-20T07:24:28;97250.28;;;-2.97;100.00
72721;BME280;60835;50.974;10.322;2022-11-20T07:26:55;97248.13;;;-2.90;100.00
72721;BME280;60835;50.974;10.322;2022-11-20T07:29:24;97213.00;;;-3.07;100.00
72721;BME280;60835;50.974;10.322;2022-11-20T07:31:51;97149.56;;;-3.64;100.00
72721;BME280;60835;50.974;10.322;2022-11-20T07:34:19;97222.81;;;-2.48;100.00
72721;BME280;60835;50.974;10.322;2022-11-20T07:36:46;97238.72;;;-2.79;100.00
72721;BME280;60835;50.974;10.322;2022-11-20T07:39:13;97231.25;;;-2.96;100.00
72721;BME280;60835;50.974;10.322;2022-11-20T07:41:39;97226.31;;;-2.74;100.00
72721;BME280;60835;50.974;10.322;2022-11-20T07:44:07;97226.50;;;-2.77;100.00
72721;BME280;60835;50.974;10.322;2022-11-20T07:46:34;97226.75;;;-2.55;100.00
72721;BME280;60835;50.974;10.322;2022-11-20T07:49:01;97211.84;;;-2.38;100.00
72721;BME280;60835;50.974;10.322;2022-11-20T07:51:27;97222.38;;;-2.67;100.00
72721;BME280;60835;50.974;10.322;2022-11-20T07:53:55;97185.88;;;-3.14;100.00
72721;BME280;60835;50.974;10.322;2022-11-20T07:56:22;97230.56;;;-2.73;100.00
72721;BME280;60835;50.974;10.322;2022-11-20T07:58:48;97212.25;;;-2.57;100.00
72721;BME280;60835;50.974;10.322;2022-11-20T08:01:18;97228.00;;;-2.60;100.00
72721;BME280;60835;50.974;10.322;2022-11-20T08:03:44;97188.31;;;-2.61;100.00
72721;BME280;60835;50.974;10.322;2022-11-20T08:06:13;97207.06;;;-2.57;100.00
72721;BME280;60835;50.974;10.322;2022-11-20T08:08:44;97221.97;;;-2.61;100.00
72721;BME280;60835;50.974;10.322;2022-11-20T08:11:14;97229.84;;;-2.50;100.00
72721;BME280;60835;50.974;10.322;2022-11-20T08:13:59;97232.94;;;-2.70;100.00
72721;BME280;60835;50.974;10.322;2022-11-20T08:16:46;97226.53;;;-2.39;100.00
72721;BME280;60835;50.974;10.322;2022-11-20T08:19:14;97240.94;;;-2.60;100.00
72721;BME280;60835;50.974;10.322;2022-11-20T08:21:41;97232.22;;;-2.59;100.00
72721;BME280;60835;50.974;10.322;2022-11-20T08:24:08;97189.66;;;-2.42;100.00
72721;BME280;60835;50.974;10.322;2022-11-20T08:26:36;97220.72;;;-2.42;100.00
72721;BME280;60835;50.974;10.322;2022-11-20T08:29:04;97222.59;;;-2.44;100.00
72721;BME280;60835;50.974;10.322;2022-11-20T08:31:31;97211.06;;;-2.15;100.00
72721;BME280;60835;50.974;10.322;2022-11-20T08:33:57;97223.22;;;-2.54;100.00
72721;BME280;60835;50.974;10.322;2022-11-20T08:36:24;97171.88;;;-2.60;100.00
72721;BME280;60835;50.974;10.322;2022-11-20T08:38:54;97218.13;;;-2.30;100.00
72721;BME280;60835;50.974;10.322;2022-11-20T08:41:21;97206.31;;;-2.21;100.00
72721;BME280;60835;50.974;10.322;2022-11-20T08:44:00;97184.66;;;-2.20;100.00
72721;BME280;60835;50.974;10.322;2022-11-20T08:46:36;97196.25;;;-2.13;100.00
72721;BME280;60835;50.974;10.322;2022-11-20T08:49:08;97154.00;;;-1.90;100.00
72721;BME280;60835;50.974;10.322;2022-11-20T08:51:35;97197.41;;;-1.81;100.00
72721;BME280;60835;50.974;10.322;2022-11-20T08:54:03;97194.13;;;-1.96;100.00
72721;BME280;60835;50.974;10.322;2022-11-20T08:56:30;97185.66;;;-2.10;100.00
72721;BME280;60835;50.974;10.322;2022-11-20T08:58:56;97201.81;;;-1.94;100.00
72721;BME280;60835;50.974;10.322;2022-11-20T09:01:43;97195.47;;;-1.90;100.00
72721;BME280;60835;50.974;10.322;2022-11-20T09:04:09;97194.91;;;-1.70;100.00
72721;BME280;60835;50.974;10.322;2022-11-20T09:06:38;97179.63;;;-1.98;100.00
72721;BME280;60835;50.974;10.322;2022-11-20T09:09:04;97186.88;;;-2.03;100.00
72721;BME280;60835;50.974;10.322;2022-11-20T09:11:32;97198.13;;;-1.79;100.00
72721;BME280;60835;50.974;10.322;2022-11-20T09:13:59;97187.25;;;-1.84;100.00
72721;BME280;60835;50.974;10.322;2022-11-20T09:16:26;97180.75;;;-1.66;100.00
72721;BME280;60835;50.974;10.322;2022-11-20T09:18:52;97166.53;;;-1.37;100.00
72721;BME280;60835;50.974;10.322;2022-11-20T09:21:38;97161.56;;;-1.40;100.00
72721;BME280;60835;50.974;10.322;2022-11-20T09:24:05;97101.06;;;-1.40;100.00
72721;BME280;60835;50.974;10.322;2022-11-20T09:26:31;97152.00;;;-1.04;100.00
72721;BME280;60835;50.974;10.322;2022-11-20T09:28:58;97138.84;;;-0.68;100.00
72721;BME280;60835;50.974;10.322;2022-11-20T09:31:25;97106.13;;;-1.04;100.00
72721;BME280;60835;50.974;10.322;2022-11-20T09:33:52;97157.19;;;-1.04;100.00
72721;BME280;60835;50.974;10.322;2022-11-20T09:36:18;97163.97;;;-0.91;100.00
72721;BME280;60835;50.974;10.322;2022-11-20T09:38:45;97151.31;;;-0.95;100.00
72721;BME280;60835;50.974;10.322;2022-11-20T09:47:38;97144.75;;;-0.55;100.00
72721;BME280;60835;50.974;10.322;2022-11-20T09:53:11;97134.25;;;-0.42;100.00
72721;BME280;60835;50.974;10.322;2022-11-20T09:55:39;97028.00;;;-0.90;100.00
72721;BME280;60835;50.974;10.322;2022-11-20T09:58:07;97112.00;;;-0.02;100.00
72721;BME280;60835;50.974;10.322;2022-11-20T10:00:37;96999.22;;;-0.98;100.00
72721;BME280;60835;50.974;10.322;2022-11-20T10:03:13;97134.22;;;0.02;100.00
72721;BME280;60835;50.974;10.322;2022-11-20T10:05:44;97127.00;;;0.06;100.00
72721;BME280;60835;50.974;10.322;2022-11-20T10:08:24;97133.72;;;0.08;100.00
72721;BME280;60835;50.974;10.322;2022-11-20T10:13:56;97132.09;;;0.07;100.00
72721;BME280;60835;50.974;10.322;2022-11-20T10:25:30;97129.31;;;0.31;100.00
72721;BME280;60835;50.974;10.322;2022-11-20T10:30:19;97115.66;;;0.49;100.00
72721;BME280;60835;50.974;10.322;2022-11-20T10:32:59;97117.91;;;0.43;100.00
72721;BME280;60835;50.974;10.322;2022-11-20T10:35:39;97111.72;;;0.55;100.00
72721;BME280;60835;50.974;10.322;2022-11-20T10:38:23;97102.72;;;0.59;100.00
72721;BME280;60835;50.974;10.322;2022-11-20T10:40:54;97117.88;;;0.54;100.00
72721;BME280;60835;50.974;10.322;2022-11-20T10:43:41;97115.53;;;0.72;100.00
72721;BME280;60835;50.974;10.322;2022-11-20T10:46:17;97106.00;;;0.61;100.00
72721;BME280;60835;50.974;10.322;2022-11-20T10:48:45;97129.25;;;0.53;100.00
72721;BME280;60835;50.974;10.322;2022-11-20T10:56:57;97132.56;;;0.55;100.00
72721;BME280;60835;50.974;10.322;2022-11-20T10:59:35;97126.97;;;0.80;100.00
72721;BME280;60835;50.974;10.322;2022-11-20T11:02:22;97116.66;;;0.90;100.00
72721;BME280;60835;50.974;10.322;2022-11-20T11:04:51;97120.16;;;0.79;100.00
72721;BME280;60835;50.974;10.322;2022-11-20T11:07:24;97119.81;;;0.73;100.00
72721;BME280;60835;50.974;10.322;2022-11-20T11:09:54;97125.81;;;0.52;100.00
72721;BME280;60835;50.974;10.322;2022-11-20T11:12:24;97116.81;;;0.77;100.00
72721;BME280;60835;50.974;10.322;2022-11-20T11:14:54;97115.38;;;0.84;100.00
72721;BME280;60835;50.974;10.322;2022-11-20T11:17:26;97112.44;;;0.78;100.00
72721;BME280;60835;50.974;10.322;2022-11-20T11:22:28;97090.16;;;1.05;100.00
72721;BME280;60835;50.974;10.322;2022-11-20T11:24:54;97104.38;;;1.01;100.00
72721;BME280;60835;50.974;10.322;2022-11-20T11:27:21;97117.75;;;0.87;100.00
72721;BME280;60835;50.974;10.322;2022-11-20T11:29:48;97066.88;;;0.83;100.00
72721;BME280;60835;50.974;10.322;2022-11-20T11:32:18;97118.34;;;0.80;100.00
72721;BME280;60835;50.974;10.322;2022-11-20T11:35:03;97108.97;;;0.88;100.00
72721;BME280;60835;50.974;10.322;2022-11-20T11:37:35;97106.34;;;0.88;100.00
72721;BME280;60835;50.974;10.322;2022-11-20T11:40:03;97111.63;;;0.77;100.00
72721;BME280;60835;50.974;10.322;2022-11-20T11:42:54;97107.75;;;0.92;100.00
72721;BME280;60835;50.974;10.322;2022-11-20T11:45:23;97120.94;;;0.59;100.00
72721;BME280;60835;50.974;10.322;2022-11-20T11:47:51;97106.25;;;0.90;100.00
72721;BME280;60835;50.974;10.322;2022-11-20T11:50:29;97074.00;;;0.29;100.00
72721;BME280;60835;50.974;10.322;2022-11-20T11:53:07;97118.91;;;0.63;100.00
72721;BME280;60835;50.974;10.322;2022-11-20T12:00:58;97119.81;;;0.41;100.00
72721;BME280;60835;50.974;10.322;2022-11-20T12:03:38;97129.28;;;0.42;100.00
72721;BME280;60835;50.974;10.322;2022-11-20T12:06:13;97119.75;;;0.63;100.00
72721;BME280;60835;50.974;10.322;2022-11-20T12:08:48;97128.84;;;0.26;100.00
72721;BME280;60835;50.974;10.322;2022-11-20T12:14:17;97113.28;;;0.78;100.00
72721;BME280;60835;50.974;10.322;2022-11-20T12:16:51;97130.97;;;0.32;100.00
72721;BME280;60835;50.974;10.322;2022-11-20T12:19:19;97110.09;;;0.11;100.00
72721;BME280;60835;50.974;10.322;2022-11-20T12:21:58;97123.19;;;0.21;100.00
72721;BME280;60835;50.974;10.322;2022-11-20T12:24:44;97121.94;;;0.04;100.00
72721;BME280;60835;50.974;10.322;2022-11-20T12:27:38;97119.56;;;0.12;100.00
72721;BME280;60835;50.974;10.322;2022-11-20T12:30:10;97108.81;;;0.37;100.00
72721;BME280;60835;50.974;10.322;2022-11-20T12:40:56;97089.16;;;0.55;100.00
72721;BME280;60835;50.974;10.322;2022-11-20T12:43:36;97081.41;;;0.65;100.00
72721;BME280;60835;50.974;10.322;2022-11-20T12:46:42;97079.97;;;0.61;100.00
72721;BME280;60835;50.974;10.322;2022-11-20T12:51:51;97072.31;;;0.80;100.00
72721;BME280;60835;50.974;10.322;2022-11-20T12:54:48;97058.94;;;0.85;100.00
72721;BME280;60835;50.974;10.322;2022-11-20T13:07:47;97043.69;;;0.80;100.00
72721;BME280;60835;50.974;10.322;2022-11-20T13:10:24;97072.13;;;0.72;100.00
72721;BME280;60835;50.974;10.322;2022-11-20T13:13:00;97065.38;;;0.90;100.00
72721;BME280;60835;50.974;10.322;2022-11-20T13:15:47;97103.53;;;0.59;100.00
72721;BME280;60835;50.974;10.322;2022-11-20T13:18:17;97028.28;;;0.47;100.00
72721;BME280;60835;50.974;10.322;2022-11-20T13:20:47;97061.97;;;0.90;100.00
72721;BME280;60835;50.974;10.322;2022-11-20T13:23:27;97070.19;;;1.15;100.00
72721;BME280;60835;50.974;10.322;2022-11-20T13:26:22;97076.19;;;0.86;100.00
72721;BME280;60835;50.974;10.322;2022-11-20T13:29:11;97074.53;;;0.64;100.00
72721;BME280;60835;50.974;10.322;2022-11-20T13:31:47;97085.59;;;0.77;100.00
72721;BME280;60835;50.974;10.322;2022-11-20T13:34:25;97088.13;;;0.68;100.00
72721;BME280;60835;50.974;10.322;2022-11-20T13:36:57;97055.75;;;0.81;100.00
72721;BME280;60835;50.974;10.322;2022-11-20T13:39:28;97080.81;;;0.82;100.00
72721;BME280;60835;50.974;10.322;2022-11-20T13:42:00;97060.28;;;1.09;100.00
72721;BME280;60835;50.974;10.322;2022-11-20T13:44:35;97075.31;;;0.96;100.00
72721;BME280;60835;50.974;10.322;2022-11-20T13:47:27;97079.56;;;0.77;100.00
72721;BME280;60835;50.974;10.322;2022-11-20T13:49:58;97092.63;;;0.66;100.00
72721;BME280;60835;50.974;10.322;2022-11-20T14:01:16;97088.38;;;0.65;100.00
72721;BME280;60835;50.974;10.322;2022-11-20T14:03:46;97086.84;;;0.62;100.00
72721;BME280;60835;50.974;10.322;2022-11-20T14:06:34;97083.69;;;0.79;100.00
72721;BME280;60835;50.974;10.322;2022-11-20T14:09:04;97087.25;;;0.78;100.00
72721;BME280;60835;50.974;10.322;2022-11-20T14:11:31;97082.53;;;0.72;100.00
72721;BME280;60835;50.974;10.322;2022-11-20T14:13:59;97075.22;;;1.07;100.00
72721;BME280;60835;50.974;10.322;2022-11-20T14:16:29;97076.91;;;1.08;100.00
72721;BME280;60835;50.974;10.322;2022-11-20T14:18:57;97078.41;;;0.90;100.00